Sylmar, California
Current Conditions -  °F | °C
As of 5:51 AM on Sunday 23 Nov 2014 (Local Time) from KVNY Reporting Station
Clear Clear  
Wind Chill: 61°   Ceiling: Unl
Heat Index: 61°   Visibility: 10mi
Dew Point: 41°   Wind: 16mph
Humidity: 48%   Direction: 10°N
Pressure: 30.1"   Gusts: NA
Location:  34.31°N, 118.45°W
Report Text: KVNY 231351Z 01014KT 10SM CLR 16/05 A3010 RMK AO2 SLP188 T01610050
Loading
Personal Weather Stations






























Interactive Weather Map New forecast layout! Learn more

10-Day Weather Forecast

Advertisements
Track Severe Weather on mobile